sensor_id;sensor_type;location;lat;lon;timestamp;P1;durP1;ratioP1;P2;durP2;ratioP2
68792;SDS011;55778;54.346;10.210;2022-11-04T00:01:25;4.15;;;2.33;;
68792;SDS011;55778;54.346;10.210;2022-11-04T00:03:51;8.68;;;2.95;;
68792;SDS011;55778;54.346;10.210;2022-11-04T00:06:17;5.43;;;2.28;;
68792;SDS011;55778;54.346;10.210;2022-11-04T00:08:47;7.43;;;2.90;;
68792;SDS011;55778;54.346;10.210;2022-11-04T00:11:13;7.05;;;2.92;;
68792;SDS011;55778;54.346;10.210;2022-11-04T00:13:57;8.57;;;2.92;;
68792;SDS011;55778;54.346;10.210;2022-11-04T00:16:22;6.70;;;2.90;;
68792;SDS011;55778;54.346;10.210;2022-11-04T00:19:06;5.75;;;2.90;;
68792;SDS011;55778;54.346;10.210;2022-11-04T00:21:32;6.30;;;2.58;;
68792;SDS011;55778;54.346;10.210;2022-11-04T00:24:16;7.05;;;2.90;;
68792;SDS011;55778;54.346;10.210;2022-11-04T00:26:59;5.95;;;2.78;;
68792;SDS011;55778;54.346;10.210;2022-11-04T00:29:43;7.28;;;2.72;;
68792;SDS011;55778;54.346;10.210;2022-11-04T00:32:09;5.95;;;2.30;;
68792;SDS011;55778;54.346;10.210;2022-11-04T00:34:53;5.35;;;2.55;;
68792;SDS011;55778;54.346;10.210;2022-11-04T00:37:19;5.13;;;2.70;;
68792;SDS011;55778;54.346;10.210;2022-11-04T00:39:44;4.97;;;2.20;;
68792;SDS011;55778;54.346;10.210;2022-11-04T00:42:10;6.05;;;2.90;;
68792;SDS011;55778;54.346;10.210;2022-11-04T00:44:35;6.75;;;2.70;;
68792;SDS011;55778;54.346;10.210;2022-11-04T00:47:00;7.60;;;3.08;;
68792;SDS011;55778;54.346;10.210;2022-11-04T00:49:26;7.90;;;2.92;;
68792;SDS011;55778;54.346;10.210;2022-11-04T00:51:51;5.85;;;2.25;;
68792;SDS011;55778;54.346;10.210;2022-11-04T00:54:17;6.07;;;2.95;;
68792;SDS011;55778;54.346;10.210;2022-11-04T00:56:42;5.88;;;2.80;;
68792;SDS011;55778;54.346;10.210;2022-11-04T00:59:07;7.60;;;3.25;;
68792;SDS011;55778;54.346;10.210;2022-11-04T01:01:34;5.30;;;2.70;;
68792;SDS011;55778;54.346;10.210;2022-11-04T01:04:00;5.72;;;3.08;;
68792;SDS011;55778;54.346;10.210;2022-11-04T01:06:25;9.77;;;3.40;;
68792;SDS011;55778;54.346;10.210;2022-11-04T01:08:58;7.20;;;2.65;;
68792;SDS011;55778;54.346;10.210;2022-11-04T01:11:25;6.63;;;3.20;;
68792;SDS011;55778;54.346;10.210;2022-11-04T01:13:52;7.07;;;2.90;;
68792;SDS011;55778;54.346;10.210;2022-11-04T01:16:18;6.43;;;2.78;;
68792;SDS011;55778;54.346;10.210;2022-11-04T01:18:43;6.72;;;3.10;;
68792;SDS011;55778;54.346;10.210;2022-11-04T01:21:12;6.22;;;3.00;;
68792;SDS011;55778;54.346;10.210;2022-11-04T01:23:39;8.45;;;3.38;;
68792;SDS011;55778;54.346;10.210;2022-11-04T01:26:06;4.70;;;2.47;;
68792;SDS011;55778;54.346;10.210;2022-11-04T01:28:33;7.15;;;3.13;;
68792;SDS011;55778;54.346;10.210;2022-11-04T01:30:59;7.40;;;3.80;;
68792;SDS011;55778;54.346;10.210;2022-11-04T01:33:29;5.30;;;3.05;;
68792;SDS011;55778;54.346;10.210;2022-11-04T01:35:57;7.88;;;3.88;;
68792;SDS011;55778;54.346;10.210;2022-11-04T01:38:27;10.20;;;3.63;;
68792;SDS011;55778;54.346;10.210;2022-11-04T01:40:53;6.55;;;3.58;;
68792;SDS011;55778;54.346;10.210;2022-11-04T01:43:19;8.10;;;3.30;;
68792;SDS011;55778;54.346;10.210;2022-11-04T01:45:47;8.00;;;3.38;;
68792;SDS011;55778;54.346;10.210;2022-11-04T01:48:18;6.47;;;2.75;;
68792;SDS011;55778;54.346;10.210;2022-11-04T01:50:49;5.88;;;3.10;;
68792;SDS011;55778;54.346;10.210;2022-11-04T01:53:17;7.80;;;3.17;;
68792;SDS011;55778;54.346;10.210;2022-11-04T01:55:50;4.40;;;2.55;;
68792;SDS011;55778;54.346;10.210;2022-11-04T01:58:18;6.90;;;3.05;;
68792;SDS011;55778;54.346;10.210;2022-11-04T02:00:47;5.22;;;2.75;;
68792;SDS011;55778;54.346;10.210;2022-11-04T02:05:44;5.72;;;3.17;;
68792;SDS011;55778;54.346;10.210;2022-11-04T02:08:11;7.18;;;3.30;;
68792;SDS011;55778;54.346;10.210;2022-11-04T02:10:38;7.93;;;3.58;;
68792;SDS011;55778;54.346;10.210;2022-11-04T02:13:05;6.60;;;3.40;;
68792;SDS011;55778;54.346;10.210;2022-11-04T02:18:09;5.15;;;3.17;;
68792;SDS011;55778;54.346;10.210;2022-11-04T02:32:23;8.77;;;3.85;;
68792;SDS011;55778;54.346;10.210;2022-11-04T02:35:00;10.05;;;3.75;;
68792;SDS011;55778;54.346;10.210;2022-11-04T02:37:56;8.27;;;4.00;;
68792;SDS011;55778;54.346;10.210;2022-11-04T02:40:40;7.63;;;3.80;;
68792;SDS011;55778;54.346;10.210;2022-11-04T02:43:25;10.07;;;3.85;;
68792;SDS011;55778;54.346;10.210;2022-11-04T02:46:16;6.53;;;4.05;;
68792;SDS011;55778;54.346;10.210;2022-11-04T02:49:10;7.80;;;4.03;;
68792;SDS011;55778;54.346;10.210;2022-11-04T02:52:20;5.35;;;3.33;;
68792;SDS011;55778;54.346;10.210;2022-11-04T02:54:48;7.18;;;3.28;;
68792;SDS011;55778;54.346;10.210;2022-11-04T02:57:23;8.07;;;4.32;;
68792;SDS011;55778;54.346;10.210;2022-11-04T03:05:12;5.93;;;3.08;;
68792;SDS011;55778;54.346;10.210;2022-11-04T03:10:32;6.63;;;3.97;;
68792;SDS011;55778;54.346;10.210;2022-11-04T03:13:08;9.93;;;4.55;;
68792;SDS011;55778;54.346;10.210;2022-11-04T03:15:35;11.48;;;4.28;;
68792;SDS011;55778;54.346;10.210;2022-11-04T03:20:48;9.73;;;4.70;;
68792;SDS011;55778;54.346;10.210;2022-11-04T03:23:15;9.68;;;4.40;;
68792;SDS011;55778;54.346;10.210;2022-11-04T03:25:44;9.80;;;4.32;;
68792;SDS011;55778;54.346;10.210;2022-11-04T03:28:17;8.45;;;3.88;;
68792;SDS011;55778;54.346;10.210;2022-11-04T03:30:50;8.40;;;4.60;;
68792;SDS011;55778;54.346;10.210;2022-11-04T03:33:27;7.85;;;4.28;;
68792;SDS011;55778;54.346;10.210;2022-11-04T03:36:02;8.15;;;4.25;;
68792;SDS011;55778;54.346;10.210;2022-11-04T03:38:28;8.23;;;3.90;;
68792;SDS011;55778;54.346;10.210;2022-11-04T03:40:54;9.45;;;4.20;;
68792;SDS011;55778;54.346;10.210;2022-11-04T03:43:28;10.32;;;3.92;;
68792;SDS011;55778;54.346;10.210;2022-11-04T03:45:54;10.82;;;4.40;;
68792;SDS011;55778;54.346;10.210;2022-11-04T03:48:20;9.73;;;4.00;;
68792;SDS011;55778;54.346;10.210;2022-11-04T03:50:47;5.85;;;3.53;;
68792;SDS011;55778;54.346;10.210;2022-11-04T03:53:20;9.95;;;4.70;;
68792;SDS011;55778;54.346;10.210;2022-11-04T03:56:13;8.90;;;4.30;;
68792;SDS011;55778;54.346;10.210;2022-11-04T04:04:39;9.82;;;4.40;;
68792;SDS011;55778;54.346;10.210;2022-11-04T04:07:14;11.10;;;4.45;;
68792;SDS011;55778;54.346;10.210;2022-11-04T04:09:54;10.05;;;4.68;;
68792;SDS011;55778;54.346;10.210;2022-11-04T04:13:00;12.40;;;4.90;;
68792;SDS011;55778;54.346;10.210;2022-11-04T04:15:29;11.43;;;4.88;;
68792;SDS011;55778;54.346;10.210;2022-11-04T04:18:06;11.23;;;4.38;;
68792;SDS011;55778;54.346;10.210;2022-11-04T04:20:36;16.60;;;6.95;;
68792;SDS011;55778;54.346;10.210;2022-11-04T04:23:08;12.40;;;5.90;;
68792;SDS011;55778;54.346;10.210;2022-11-04T04:25:59;12.05;;;4.72;;
68792;SDS011;55778;54.346;10.210;2022-11-04T04:28:45;11.95;;;5.28;;
68792;SDS011;55778;54.346;10.210;2022-11-04T04:31:12;14.60;;;5.05;;
68792;SDS011;55778;54.346;10.210;2022-11-04T04:34:03;10.82;;;5.50;;
68792;SDS011;55778;54.346;10.210;2022-11-04T04:36:29;11.45;;;5.22;;
68792;SDS011;55778;54.346;10.210;2022-11-04T04:38:58;11.50;;;5.75;;
68792;SDS011;55778;54.346;10.210;2022-11-04T04:41:47;9.32;;;4.65;;
68792;SDS011;55778;54.346;10.210;2022-11-04T04:44:32;12.57;;;5.10;;
68792;SDS011;55778;54.346;10.210;2022-11-04T04:47:21;9.32;;;4.97;;
68792;SDS011;55778;54.346;10.210;2022-11-04T04:49:52;12.52;;;5.88;;
68792;SDS011;55778;54.346;10.210;2022-11-04T04:52:18;14.73;;;6.53;;
68792;SDS011;55778;54.346;10.210;2022-11-04T04:54:45;15.52;;;6.55;;
68792;SDS011;55778;54.346;10.210;2022-11-04T04:57:11;11.10;;;5.68;;
68792;SDS011;55778;54.346;10.210;2022-11-04T04:59:36;12.43;;;5.82;;
68792;SDS011;55778;54.346;10.210;2022-11-04T05:02:02;13.82;;;6.10;;
68792;SDS011;55778;54.346;10.210;2022-11-04T05:04:27;7.30;;;4.85;;
68792;SDS011;55778;54.346;10.210;2022-11-04T05:06:53;12.27;;;6.22;;
68792;SDS011;55778;54.346;10.210;2022-11-04T05:09:18;10.77;;;5.75;;
68792;SDS011;55778;54.346;10.210;2022-11-04T05:11:44;12.70;;;5.72;;
68792;SDS011;55778;54.346;10.210;2022-11-04T05:14:09;13.00;;;6.28;;
68792;SDS011;55778;54.346;10.210;2022-11-04T05:16:34;13.50;;;6.38;;
68792;SDS011;55778;54.346;10.210;2022-11-04T05:19:00;12.50;;;5.72;;
68792;SDS011;55778;54.346;10.210;2022-11-04T05:21:25;14.63;;;6.28;;
68792;SDS011;55778;54.346;10.210;2022-11-04T05:23:50;16.67;;;7.03;;
68792;SDS011;55778;54.346;10.210;2022-11-04T05:26:16;11.77;;;5.55;;
68792;SDS011;55778;54.346;10.210;2022-11-04T05:28:41;9.68;;;5.10;;
68792;SDS011;55778;54.346;10.210;2022-11-04T05:31:07;16.65;;;7.05;;
68792;SDS011;55778;54.346;10.210;2022-11-04T05:33:32;11.98;;;5.65;;
68792;SDS011;55778;54.346;10.210;2022-11-04T05:36:04;13.10;;;5.63;;
68792;SDS011;55778;54.346;10.210;2022-11-04T05:38:37;13.68;;;5.55;;
68792;SDS011;55778;54.346;10.210;2022-11-04T05:41:03;14.52;;;7.22;;
68792;SDS011;55778;54.346;10.210;2022-11-04T05:43:29;16.20;;;7.55;;
68792;SDS011;55778;54.346;10.210;2022-11-04T05:45:56;10.38;;;5.05;;
68792;SDS011;55778;54.346;10.210;2022-11-04T05:48:22;11.70;;;6.15;;
68792;SDS011;55778;54.346;10.210;2022-11-04T05:50:47;10.40;;;6.00;;
68792;SDS011;55778;54.346;10.210;2022-11-04T05:53:13;10.10;;;5.32;;
68792;SDS011;55778;54.346;10.210;2022-11-04T05:55:38;9.73;;;5.60;;
68792;SDS011;55778;54.346;10.210;2022-11-04T05:58:03;11.25;;;5.97;;
68792;SDS011;55778;54.346;10.210;2022-11-04T06:00:29;10.98;;;6.10;;
68792;SDS011;55778;54.346;10.210;2022-11-04T06:02:54;11.25;;;5.97;;
68792;SDS011;55778;54.346;10.210;2022-11-04T06:05:23;9.25;;;5.13;;
68792;SDS011;55778;54.346;10.210;2022-11-04T06:07:49;9.20;;;5.80;;
68792;SDS011;55778;54.346;10.210;2022-11-04T06:10:14;10.93;;;6.00;;
68792;SDS011;55778;54.346;10.210;2022-11-04T06:12:40;11.25;;;5.38;;
68792;SDS011;55778;54.346;10.210;2022-11-04T06:15:05;11.00;;;5.30;;
68792;SDS011;55778;54.346;10.210;2022-11-04T06:17:31;9.15;;;5.28;;
68792;SDS011;55778;54.346;10.210;2022-11-04T06:19:57;8.57;;;5.22;;
68792;SDS011;55778;54.346;10.210;2022-11-04T06:22:22;7.95;;;4.65;;
68792;SDS011;55778;54.346;10.210;2022-11-04T06:24:48;10.20;;;4.75;;
68792;SDS011;55778;54.346;10.210;2022-11-04T06:27:13;5.07;;;3.40;;
68792;SDS011;55778;54.346;10.210;2022-11-04T06:29:39;6.50;;;3.75;;
68792;SDS011;55778;54.346;10.210;2022-11-04T06:32:06;5.72;;;3.20;;
68792;SDS011;55778;54.346;10.210;2022-11-04T06:34:32;5.80;;;3.65;;
68792;SDS011;55778;54.346;10.210;2022-11-04T06:36:58;6.07;;;3.67;;
68792;SDS011;55778;54.346;10.210;2022-11-04T06:39:23;5.88;;;3.50;;
68792;SDS011;55778;54.346;10.210;2022-11-04T06:41:49;5.80;;;3.20;;
68792;SDS011;55778;54.346;10.210;2022-11-04T06:44:14;5.38;;;2.65;;
68792;SDS011;55778;54.346;10.210;2022-11-04T06:46:40;4.40;;;2.90;;
68792;SDS011;55778;54.346;10.210;2022-11-04T06:49:09;4.32;;;2.53;;
68792;SDS011;55778;54.346;10.210;2022-11-04T06:51:36;6.30;;;2.17;;
68792;SDS011;55778;54.346;10.210;2022-11-04T06:54:02;3.45;;;1.92;;
68792;SDS011;55778;54.346;10.210;2022-11-04T06:56:28;2.97;;;1.42;;
68792;SDS011;55778;54.346;10.210;2022-11-04T06:58:53;3.58;;;1.30;;
68792;SDS011;55778;54.346;10.210;2022-11-04T07:01:19;2.03;;;0.90;;
68792;SDS011;55778;54.346;10.210;2022-11-04T07:03:49;2.25;;;0.90;;
68792;SDS011;55778;54.346;10.210;2022-11-04T07:06:15;2.53;;;0.98;;
68792;SDS011;55778;54.346;10.210;2022-11-04T07:08:41;2.20;;;0.82;;
68792;SDS011;55778;54.346;10.210;2022-11-04T07:11:06;1.38;;;0.80;;
68792;SDS011;55778;54.346;10.210;2022-11-04T07:13:32;2.40;;;1.10;;
68792;SDS011;55778;54.346;10.210;2022-11-04T07:15:58;1.63;;;0.80;;
68792;SDS011;55778;54.346;10.210;2022-11-04T07:18:24;1.67;;;0.85;;
68792;SDS011;55778;54.346;10.210;2022-11-04T07:20:50;1.80;;;0.88;;
68792;SDS011;55778;54.346;10.210;2022-11-04T07:23:15;3.35;;;0.93;;
68792;SDS011;55778;54.346;10.210;2022-11-04T07:25:41;2.65;;;0.93;;
68792;SDS011;55778;54.346;10.210;2022-11-04T07:28:07;1.88;;;0.70;;
68792;SDS011;55778;54.346;10.210;2022-11-04T07:30:32;1.58;;;0.90;;
68792;SDS011;55778;54.346;10.210;2022-11-04T07:32:58;1.95;;;0.80;;
68792;SDS011;55778;54.346;10.210;2022-11-04T07:35:23;1.23;;;0.50;;
68792;SDS011;55778;54.346;10.210;2022-11-04T07:37:49;1.02;;;0.73;;
68792;SDS011;55778;54.346;10.210;2022-11-04T07:40:14;2.05;;;0.80;;
68792;SDS011;55778;54.346;10.210;2022-11-04T07:42:39;2.25;;;0.80;;
68792;SDS011;55778;54.346;10.210;2022-11-04T07:45:05;1.30;;;0.77;;
68792;SDS011;55778;54.346;10.210;2022-11-04T07:47:31;2.58;;;1.10;;
68792;SDS011;55778;54.346;10.210;2022-11-04T07:49:57;1.40;;;0.90;;
68792;SDS011;55778;54.346;10.210;2022-11-04T07:52:23;1.13;;;0.75;;
68792;SDS011;55778;54.346;10.210;2022-11-04T07:54:49;0.85;;;0.70;;
68792;SDS011;55778;54.346;10.210;2022-11-04T07:57:14;1.35;;;0.70;;
68792;SDS011;55778;54.346;10.210;2022-11-04T07:59:40;2.63;;;0.80;;
68792;SDS011;55778;54.346;10.210;2022-11-04T08:02:05;3.35;;;0.90;;
68792;SDS011;55778;54.346;10.210;2022-11-04T08:04:30;2.83;;;1.10;;
68792;SDS011;55778;54.346;10.210;2022-11-04T08:06:56;2.67;;;0.93;;
68792;SDS011;55778;54.346;10.210;2022-11-04T08:09:22;1.60;;;0.80;;
68792;SDS011;55778;54.346;10.210;2022-11-04T08:11:47;2.20;;;0.93;;
68792;SDS011;55778;54.346;10.210;2022-11-04T08:14:13;1.92;;;0.95;;
68792;SDS011;55778;54.346;10.210;2022-11-04T08:16:39;1.40;;;0.93;;
68792;SDS011;55778;54.346;10.210;2022-11-04T08:19:04;1.55;;;1.05;;
68792;SDS011;55778;54.346;10.210;2022-11-04T08:21:31;3.97;;;1.17;;
68792;SDS011;55778;54.346;10.210;2022-11-04T08:23:57;2.53;;;0.93;;
68792;SDS011;55778;54.346;10.210;2022-11-04T08:26:23;1.10;;;0.82;;
68792;SDS011;55778;54.346;10.210;2022-11-04T08:28:49;3.13;;;1.00;;
68792;SDS011;55778;54.346;10.210;2022-11-04T08:31:17;2.08;;;0.90;;
68792;SDS011;55778;54.346;10.210;2022-11-04T08:33:50;1.52;;;0.80;;
68792;SDS011;55778;54.346;10.210;2022-11-04T08:38:47;2.05;;;1.10;;
68792;SDS011;55778;54.346;10.210;2022-11-04T08:41:13;2.25;;;1.15;;
68792;SDS011;55778;54.346;10.210;2022-11-04T08:43:40;3.83;;;0.88;;
68792;SDS011;55778;54.346;10.210;2022-11-04T08:46:06;2.08;;;0.88;;
68792;SDS011;55778;54.346;10.210;2022-11-04T08:48:33;2.67;;;1.30;;
68792;SDS011;55778;54.346;10.210;2022-11-04T08:50:59;1.73;;;0.90;;
68792;SDS011;55778;54.346;10.210;2022-11-04T08:53:25;1.58;;;0.80;;
68792;SDS011;55778;54.346;10.210;2022-11-04T08:55:51;1.67;;;0.90;;
68792;SDS011;55778;54.346;10.210;2022-11-04T08:58:18;2.88;;;1.00;;
68792;SDS011;55778;54.346;10.210;2022-11-04T09:00:44;2.80;;;1.20;;
68792;SDS011;55778;54.346;10.210;2022-11-04T09:03:10;2.22;;;1.20;;
68792;SDS011;55778;54.346;10.210;2022-11-04T09:05:36;6.85;;;3.13;;
68792;SDS011;55778;54.346;10.210;2022-11-04T09:08:12;3.35;;;1.58;;
68792;SDS011;55778;54.346;10.210;2022-11-04T09:10:41;3.97;;;1.40;;
68792;SDS011;55778;54.346;10.210;2022-11-04T09:13:07;2.83;;;1.60;;
68792;SDS011;55778;54.346;10.210;2022-11-04T09:15:35;1.90;;;0.93;;
68792;SDS011;55778;54.346;10.210;2022-11-04T09:18:01;2.72;;;1.10;;
68792;SDS011;55778;54.346;10.210;2022-11-04T09:20:26;3.75;;;1.27;;
68792;SDS011;55778;54.346;10.210;2022-11-04T09:22:52;1.70;;;1.30;;
68792;SDS011;55778;54.346;10.210;2022-11-04T09:25:18;2.55;;;1.63;;
68792;SDS011;55778;54.346;10.210;2022-11-04T09:27:43;2.50;;;1.38;;
68792;SDS011;55778;54.346;10.210;2022-11-04T09:30:09;3.50;;;1.27;;
68792;SDS011;55778;54.346;10.210;2022-11-04T09:32:35;3.17;;;1.20;;
68792;SDS011;55778;54.346;10.210;2022-11-04T09:35:00;3.47;;;1.20;;
68792;SDS011;55778;54.346;10.210;2022-11-04T09:37:26;2.80;;;1.30;;
68792;SDS011;55778;54.346;10.210;2022-11-04T09:39:51;3.28;;;1.45;;
68792;SDS011;55778;54.346;10.210;2022-11-04T09:45:10;2.08;;;1.30;;
68792;SDS011;55778;54.346;10.210;2022-11-04T09:47:40;4.25;;;1.42;;
68792;SDS011;55778;54.346;10.210;2022-11-04T09:50:09;4.13;;;1.55;;
68792;SDS011;55778;54.346;10.210;2022-11-04T09:52:43;2.33;;;1.08;;
68792;SDS011;55778;54.346;10.210;2022-11-04T09:55:23;1.75;;;1.20;;
68792;SDS011;55778;54.346;10.210;2022-11-04T09:57:54;4.03;;;1.20;;
68792;SDS011;55778;54.346;10.210;2022-11-04T10:00:25;2.67;;;1.08;;
68792;SDS011;55778;54.346;10.210;2022-11-04T10:08:16;3.85;;;1.15;;
68792;SDS011;55778;54.346;10.210;2022-11-04T10:10:56;1.60;;;1.10;;
68792;SDS011;55778;54.346;10.210;2022-11-04T10:13:38;2.42;;;1.08;;
68792;SDS011;55778;54.346;10.210;2022-11-04T10:19:01;2.63;;;1.00;;
68792;SDS011;55778;54.346;10.210;2022-11-04T10:21:57;2.90;;;0.98;;
68792;SDS011;55778;54.346;10.210;2022-11-04T10:25:02;3.10;;;1.10;;
68792;SDS011;55778;54.346;10.210;2022-11-04T10:27:28;1.92;;;1.02;;
68792;SDS011;55778;54.346;10.210;2022-11-04T10:29:58;3.67;;;1.17;;
68792;SDS011;55778;54.346;10.210;2022-11-04T10:34:59;2.05;;;1.00;;
68792;SDS011;55778;54.346;10.210;2022-11-04T10:37:29;2.13;;;0.70;;
68792;SDS011;55778;54.346;10.210;2022-11-04T10:40:16;4.05;;;1.13;;
68792;SDS011;55778;54.346;10.210;2022-11-04T10:42:48;2.80;;;1.17;;
68792;SDS011;55778;54.346;10.210;2022-11-04T10:45:13;3.60;;;1.10;;
68792;SDS011;55778;54.346;10.210;2022-11-04T10:47:42;2.83;;;1.02;;
68792;SDS011;55778;54.346;10.210;2022-11-04T10:52:50;3.25;;;1.42;;
68792;SDS011;55778;54.346;10.210;2022-11-04T10:57:59;2.33;;;0.80;;
68792;SDS011;55778;54.346;10.210;2022-11-04T11:00:32;3.28;;;1.10;;
68792;SDS011;55778;54.346;10.210;2022-11-04T11:02:59;1.98;;;0.90;;
68792;SDS011;55778;54.346;10.210;2022-11-04T11:05:24;4.38;;;1.45;;
68792;SDS011;55778;54.346;10.210;2022-11-04T11:07:54;3.08;;;1.42;;
68792;SDS011;55778;54.346;10.210;2022-11-04T11:10:22;4.07;;;1.42;;
68792;SDS011;55778;54.346;10.210;2022-11-04T11:15:49;2.53;;;1.70;;
68792;SDS011;55778;54.346;10.210;2022-11-04T11:18:34;3.38;;;1.27;;
68792;SDS011;55778;54.346;10.210;2022-11-04T11:21:04;9.95;;;1.90;;
68792;SDS011;55778;54.346;10.210;2022-11-04T11:23:48;4.53;;;1.33;;
68792;SDS011;55778;54.346;10.210;2022-11-04T11:26:18;4.22;;;1.00;;
68792;SDS011;55778;54.346;10.210;2022-11-04T11:28:52;4.32;;;1.20;;
68792;SDS011;55778;54.346;10.210;2022-11-04T11:31:33;3.13;;;1.00;;
68792;SDS011;55778;54.346;10.210;2022-11-04T11:34:02;5.13;;;1.20;;
68792;SDS011;55778;54.346;10.210;2022-11-04T11:36:30;3.15;;;1.20;;
68792;SDS011;55778;54.346;10.210;2022-11-04T11:39:05;6.38;;;1.50;;
68792;SDS011;55778;54.346;10.210;2022-11-04T11:41:51;2.15;;;0.80;;
68792;SDS011;55778;54.346;10.210;2022-11-04T11:46:56;2.22;;;0.93;;
68792;SDS011;55778;54.346;10.210;2022-11-04T11:49:28;3.03;;;1.00;;
68792;SDS011;55778;54.346;10.210;2022-11-04T11:55:02;1.80;;;0.80;;
68792;SDS011;55778;54.346;10.210;2022-11-04T11:57:43;2.25;;;0.93;;
68792;SDS011;55778;54.346;10.210;2022-11-04T12:00:16;5.75;;;1.00;;
68792;SDS011;55778;54.346;10.210;2022-11-04T12:02:53;3.13;;;0.90;;
68792;SDS011;55778;54.346;10.210;2022-11-04T12:05:31;3.05;;;1.00;;
68792;SDS011;55778;54.346;10.210;2022-11-04T12:11:33;5.88;;;2.00;;
68792;SDS011;55778;54.346;10.210;2022-11-04T12:14:11;5.05;;;1.05;;
68792;SDS011;55778;54.346;10.210;2022-11-04T12:16:57;1.63;;;0.80;;
68792;SDS011;55778;54.346;10.210;2022-11-04T12:30:28;3.42;;;0.90;;
68792;SDS011;55778;54.346;10.210;2022-11-04T12:55:51;3.22;;;1.02;;
68792;SDS011;55778;54.346;10.210;2022-11-04T13:00:47;1.65;;;0.90;;
68792;SDS011;55778;54.346;10.210;2022-11-04T13:03:20;2.33;;;1.20;;
68792;SDS011;55778;54.346;10.210;2022-11-04T13:06:00;2.83;;;1.08;;
68792;SDS011;55778;54.346;10.210;2022-11-04T13:08:36;4.53;;;1.20;;
68792;SDS011;55778;54.346;10.210;2022-11-04T13:11:25;2.92;;;1.50;;
68792;SDS011;55778;54.346;10.210;2022-11-04T13:13:57;7.45;;;1.70;;
68792;SDS011;55778;54.346;10.210;2022-11-04T13:16:40;3.78;;;1.80;;
68792;SDS011;55778;54.346;10.210;2022-11-04T13:21:55;7.45;;;2.33;;
68792;SDS011;55778;54.346;10.210;2022-11-04T13:24:25;5.23;;;2.00;;
68792;SDS011;55778;54.346;10.210;2022-11-04T13:26:57;5.45;;;2.30;;
68792;SDS011;55778;54.346;10.210;2022-11-04T13:29:27;5.97;;;1.52;;
68792;SDS011;55778;54.346;10.210;2022-11-04T13:32:03;6.13;;;1.52;;
68792;SDS011;55778;54.346;10.210;2022-11-04T13:34:39;3.35;;;1.20;;
68792;SDS011;55778;54.346;10.210;2022-11-04T13:40:33;3.33;;;1.38;;
68792;SDS011;55778;54.346;10.210;2022-11-04T13:45:16;4.88;;;1.25;;
68792;SDS011;55778;54.346;10.210;2022-11-04T13:47:54;7.15;;;1.35;;
68792;SDS011;55778;54.346;10.210;2022-11-04T13:53:05;4.22;;;1.05;;
68792;SDS011;55778;54.346;10.210;2022-11-04T13:55:34;4.20;;;0.90;;
68792;SDS011;55778;54.346;10.210;2022-11-04T13:58:14;3.63;;;0.75;;
68792;SDS011;55778;54.346;10.210;2022-11-04T14:01:08;4.05;;;0.85;;
68792;SDS011;55778;54.346;10.210;2022-11-04T14:03:39;4.97;;;0.85;;
68792;SDS011;55778;54.346;10.210;2022-11-04T14:06:15;5.18;;;1.00;;
68792;SDS011;55778;54.346;10.210;2022-11-04T14:14:34;6.55;;;1.30;;
68792;SDS011;55778;54.346;10.210;2022-11-04T14:17:01;3.10;;;0.80;;
68792;SDS011;55778;54.346;10.210;2022-11-04T14:19:54;4.40;;;1.30;;
68792;SDS011;55778;54.346;10.210;2022-11-04T14:25:40;5.05;;;1.38;;
68792;SDS011;55778;54.346;10.210;2022-11-04T14:30:36;6.45;;;1.75;;
68792;SDS011;55778;54.346;10.210;2022-11-04T14:33:28;6.38;;;1.70;;
68792;SDS011;55778;54.346;10.210;2022-11-04T14:35:55;5.32;;;1.48;;
68792;SDS011;55778;54.346;10.210;2022-11-04T14:38:37;6.05;;;1.40;;
68792;SDS011;55778;54.346;10.210;2022-11-04T14:43:58;5.57;;;1.20;;
68792;SDS011;55778;54.346;10.210;2022-11-04T14:46:27;4.40;;;1.00;;
68792;SDS011;55778;54.346;10.210;2022-11-04T14:48:58;5.28;;;1.50;;
68792;SDS011;55778;54.346;10.210;2022-11-04T14:51:30;3.90;;;1.25;;
68792;SDS011;55778;54.346;10.210;2022-11-04T14:54:05;7.95;;;1.95;;
68792;SDS011;55778;54.346;10.210;2022-11-04T14:56:37;5.15;;;1.52;;
68792;SDS011;55778;54.346;10.210;2022-11-04T14:59:04;2.70;;;1.13;;
68792;SDS011;55778;54.346;10.210;2022-11-04T15:01:38;3.45;;;1.23;;
68792;SDS011;55778;54.346;10.210;2022-11-04T15:04:06;2.33;;;1.10;;
68792;SDS011;55778;54.346;10.210;2022-11-04T15:06:38;6.32;;;1.50;;
68792;SDS011;55778;54.346;10.210;2022-11-04T15:09:16;4.28;;;1.48;;
68792;SDS011;55778;54.346;10.210;2022-11-04T15:11:44;4.72;;;1.00;;
68792;SDS011;55778;54.346;10.210;2022-11-04T15:14:28;4.40;;;1.40;;
68792;SDS011;55778;54.346;10.210;2022-11-04T15:16:57;4.05;;;1.10;;
68792;SDS011;55778;54.346;10.210;2022-11-04T15:19:27;6.05;;;1.17;;
68792;SDS011;55778;54.346;10.210;2022-11-04T15:21:54;4.03;;;1.20;;
68792;SDS011;55778;54.346;10.210;2022-11-04T15:24:21;5.70;;;1.25;;
68792;SDS011;55778;54.346;10.210;2022-11-04T15:26:50;5.72;;;1.23;;
68792;SDS011;55778;54.346;10.210;2022-11-04T15:29:18;6.25;;;1.52;;
68792;SDS011;55778;54.346;10.210;2022-11-04T15:31:55;6.15;;;1.02;;
68792;SDS011;55778;54.346;10.210;2022-11-04T15:34:23;5.07;;;1.10;;
68792;SDS011;55778;54.346;10.210;2022-11-04T15:36:51;7.03;;;1.02;;
68792;SDS011;55778;54.346;10.210;2022-11-04T15:41:48;5.18;;;1.80;;
68792;SDS011;55778;54.346;10.210;2022-11-04T15:44:35;8.15;;;2.00;;
68792;SDS011;55778;54.346;10.210;2022-11-04T15:49:44;6.78;;;1.98;;
68792;SDS011;55778;54.346;10.210;2022-11-04T15:52:11;6.72;;;2.00;;
68792;SDS011;55778;54.346;10.210;2022-11-04T15:54:40;5.00;;;1.40;;
68792;SDS011;55778;54.346;10.210;2022-11-04T15:59:49;4.60;;;1.27;;
68792;SDS011;55778;54.346;10.210;2022-11-04T16:02:23;5.13;;;1.10;;
68792;SDS011;55778;54.346;10.210;2022-11-04T16:05:03;4.18;;;1.42;;
68792;SDS011;55778;54.346;10.210;2022-11-04T16:07:34;8.07;;;2.30;;
68792;SDS011;55778;54.346;10.210;2022-11-04T16:10:21;4.00;;;1.35;;
68792;SDS011;55778;54.346;10.210;2022-11-04T16:16:03;4.03;;;1.70;;
68792;SDS011;55778;54.346;10.210;2022-11-04T16:18:24;5.90;;;2.00;;
68792;SDS011;55778;54.346;10.210;2022-11-04T16:20:54;6.30;;;2.03;;
68792;SDS011;55778;54.346;10.210;2022-11-04T16:23:25;5.22;;;1.90;;
68792;SDS011;55778;54.346;10.210;2022-11-04T16:25:59;6.22;;;2.33;;
68792;SDS011;55778;54.346;10.210;2022-11-04T16:28:30;6.70;;;2.33;;
68792;SDS011;55778;54.346;10.210;2022-11-04T16:31:07;8.45;;;2.60;;
68792;SDS011;55778;54.346;10.210;2022-11-04T16:33:47;9.07;;;2.13;;
68792;SDS011;55778;54.346;10.210;2022-11-04T16:36:13;7.32;;;2.15;;
68792;SDS011;55778;54.346;10.210;2022-11-04T16:38:54;4.82;;;2.40;;
68792;SDS011;55778;54.346;10.210;2022-11-04T16:41:22;6.50;;;2.20;;
68792;SDS011;55778;54.346;10.210;2022-11-04T16:43:49;9.20;;;2.45;;
68792;SDS011;55778;54.346;10.210;2022-11-04T16:46:15;6.47;;;2.53;;
68792;SDS011;55778;54.346;10.210;2022-11-04T16:48:41;7.47;;;2.95;;
68792;SDS011;55778;54.346;10.210;2022-11-04T16:51:10;8.88;;;2.42;;
68792;SDS011;55778;54.346;10.210;2022-11-04T16:53:42;8.38;;;2.40;;
68792;SDS011;55778;54.346;10.210;2022-11-04T16:56:08;9.93;;;3.17;;
68792;SDS011;55778;54.346;10.210;2022-11-04T16:58:37;10.20;;;4.00;;
68792;SDS011;55778;54.346;10.210;2022-11-04T17:01:02;10.45;;;4.53;;
68792;SDS011;55778;54.346;10.210;2022-11-04T17:03:28;12.13;;;4.25;;
68792;SDS011;55778;54.346;10.210;2022-11-04T17:05:54;10.60;;;4.47;;
68792;SDS011;55778;54.346;10.210;2022-11-04T17:08:22;11.77;;;5.55;;
68792;SDS011;55778;54.346;10.210;2022-11-04T17:10:48;9.82;;;4.18;;
68792;SDS011;55778;54.346;10.210;2022-11-04T17:13:14;9.30;;;4.72;;